»·PEaware :: SWA3733 KSFO-KDEN

SWA3733 :: KSFO-KDEN

FLIGHT INFORMATION

Flight Status: Arrived
Operator:
Southwest Airlines
More flights by this operator :: More flights under this callsign
Pilot: Ron W. (20661)
Aircraft: BOEING 737-800
(B738)
More flights by this aircraft type
Origin: KSFO San Francisco Intl
United States
Destination: KDEN Denver Intl
United States
More flights between these airports :: More routes between these airports
Route: +TRUKN2 TIPRE Q126 INSLO DTA J84 EKR FRNCH3
File this flight plan on PilotEdge
Remarks:
Altitude:
(Current/Filed)
39,000ft
Speed:
(Current/Filed)
520kts
Departed: 09-Oct-18 06:13 PM
Arrived: 09-Oct-18 08:24 PM
Distance/Time
Traveled:
838nm/2:10
Distance/Time
To Go:
Arrived

Flight Plot

Page will automatically refresh every two minutes.

Flight plan parsing failed; only flown route is shown


Map Options




Map Legend


Flown Route
Filed Route
Departure Airport
Arrival Airport
Navaid (VOR, NDB)
Fix

Horizontal Profiles

Position Reports

Time Latitude Longitude Heading Altitude Ground
Speed
09-Oct-18 17:50 37.612627 -122.384667 4 21ft 0kts
09-Oct-18 17:51 37.612627 -122.384667 4 21ft 0kts
09-Oct-18 17:52 37.612627 -122.384667 4 21ft 0kts
09-Oct-18 17:53 37.612627 -122.384667 4 21ft 0kts
09-Oct-18 17:54 37.612627 -122.384667 4 21ft 0kts
09-Oct-18 17:55 37.612627 -122.384667 4 21ft 0kts
09-Oct-18 17:56 37.612627 -122.384667 4 21ft 0kts
09-Oct-18 17:57 37.612627 -122.384667 4 21ft 0kts
09-Oct-18 17:58 37.612627 -122.384667 4 21ft 0kts
09-Oct-18 17:59 37.612627 -122.384667 4 21ft 0kts
09-Oct-18 18:00 37.612627 -122.384667 4 21ft 0kts
09-Oct-18 18:01 37.612627 -122.384667 4 21ft 0kts
09-Oct-18 18:02 37.612627 -122.384667 4 21ft 0kts
09-Oct-18 18:03 37.612627 -122.384667 4 21ft 0kts
09-Oct-18 18:04 37.612627 -122.384667 4 21ft 0kts
09-Oct-18 18:05 37.612168 -122.384717 4 21ft 2kts
09-Oct-18 18:06 37.611729 -122.384765 4 21ft 0kts
09-Oct-18 18:07 37.611729 -122.384765 4 21ft 0kts
09-Oct-18 18:08 37.611477 -122.384135 126 21ft 5kts
09-Oct-18 18:09 37.611437 -122.384064 123 21ft 0kts
09-Oct-18 18:10 37.613682 -122.381621 26 21ft 18kts
09-Oct-18 18:11 37.612890 -122.382108 208 21ft 11kts
09-Oct-18 18:12 37.610198 -122.383962 216 21ft 16kts
09-Oct-18 18:13 37.608510 -122.383861 117 21ft 0kts
09-Oct-18 18:14 37.609414 -122.381908 26 21ft 27kts
09-Oct-18 18:15 37.646903 -122.353000 45 1306ft 181kts
09-Oct-18 18:16 37.673843 -122.300252 53 3259ft 240kts
09-Oct-18 18:17 37.710678 -122.227891 52 6923ft 254kts
09-Oct-18 18:29 38.229009 -120.873701 69 18912ft 394kts
09-Oct-18 18:30 38.248028 -120.736365 69 18921ft 393kts
09-Oct-18 18:31 38.267138 -120.597690 68 20665ft 401kts
09-Oct-18 18:32 38.287069 -120.456657 68 22756ft 410kts
09-Oct-18 18:33 38.307074 -120.312211 67 24666ft 417kts
09-Oct-18 18:34 38.327081 -120.165756 67 26408ft 423kts
09-Oct-18 18:35 38.347182 -120.016887 66 27915ft 430kts
09-Oct-18 18:36 38.367352 -119.865921 66 29267ft 435kts
09-Oct-18 18:37 38.387323 -119.714867 66 30838ft 433kts
09-Oct-18 18:38 38.407156 -119.563313 67 32130ft 435kts
09-Oct-18 18:39 38.426877 -119.411001 68 33370ft 436kts
09-Oct-18 18:40 38.446509 -119.257742 68 34447ft 439kts
09-Oct-18 18:41 38.466087 -119.103232 69 35409ft 444kts
09-Oct-18 18:42 38.485682 -118.946877 69 36334ft 447kts
09-Oct-18 18:43 38.505254 -118.788935 70 37157ft 452kts
09-Oct-18 18:44 38.524642 -118.630709 70 37975ft 454kts
09-Oct-18 18:45 38.544068 -118.470275 71 38680ft 458kts
09-Oct-18 18:46 38.563440 -118.308369 71 39064ft 461kts
09-Oct-18 18:47 38.582509 -118.147072 71 39064ft 459kts
09-Oct-18 18:48 38.601371 -117.985576 71 39056ft 460kts
09-Oct-18 18:49 38.620096 -117.823381 72 39048ft 461kts
09-Oct-18 18:50 38.638786 -117.660942 72 39039ft 461kts
09-Oct-18 18:51 38.657093 -117.498411 73 39032ft 461kts
09-Oct-18 18:52 38.674976 -117.335815 73 39025ft 461kts
09-Oct-18 18:53 38.696705 -117.174633 71 39021ft 458kts
09-Oct-18 18:54 38.721092 -117.014310 71 39009ft 459kts
09-Oct-18 18:55 38.744854 -116.853716 71 39000ft 459kts
09-Oct-18 18:56 38.768955 -116.693036 72 38999ft 460kts
09-Oct-18 18:57 38.792635 -116.531350 73 39002ft 461kts
09-Oct-18 18:58 38.816023 -116.369293 73 39004ft 461kts
09-Oct-18 18:59 38.839080 -116.207618 73 39006ft 462kts
09-Oct-18 19:00 38.861947 -116.045529 73 39008ft 462kts
09-Oct-18 19:01 38.884809 -115.882198 75 38992ft 465kts
09-Oct-18 19:02 38.907287 -115.719104 75 38986ft 465kts
09-Oct-18 19:03 38.929662 -115.555204 75 38981ft 465kts
09-Oct-18 19:04 38.951739 -115.391802 76 38975ft 465kts
09-Oct-18 19:05 38.973712 -115.227387 76 38969ft 466kts
09-Oct-18 19:06 38.995411 -115.063187 76 38964ft 466kts
09-Oct-18 19:07 39.016906 -114.898688 77 38962ft 467kts
09-Oct-18 19:08 39.038142 -114.734316 77 38957ft 467kts
09-Oct-18 19:09 39.059244 -114.569079 78 38955ft 468kts
09-Oct-18 19:10 39.080118 -114.403692 78 38949ft 468kts
09-Oct-18 19:11 39.100775 -114.238098 78 38943ft 468kts
09-Oct-18 19:12 39.121169 -114.072613 78 38935ft 468kts
09-Oct-18 19:13 39.141413 -113.906846 79 38911ft 470kts
09-Oct-18 19:14 39.161402 -113.740308 80 38895ft 470kts
09-Oct-18 19:15 39.181208 -113.573456 80 38883ft 471kts
09-Oct-18 19:16 39.200758 -113.406779 80 38873ft 471kts
09-Oct-18 19:17 39.220149 -113.239333 81 38866ft 471kts
09-Oct-18 19:18 39.239267 -113.072100 81 38859ft 473kts
09-Oct-18 19:19 39.258284 -112.904209 81 38855ft 473kts
09-Oct-18 19:20 39.277165 -112.736266 82 38852ft 473kts
09-Oct-18 19:21 39.295459 -112.567937 83 38849ft 473kts
09-Oct-18 19:22 39.320591 -112.401307 76 38850ft 474kts
09-Oct-18 19:23 39.352033 -112.235780 77 38850ft 474kts
09-Oct-18 19:24 39.382700 -112.069833 77 38850ft 474kts
09-Oct-18 19:25 39.413840 -111.903395 78 38852ft 477kts
09-Oct-18 19:26 39.444354 -111.736694 78 38853ft 476kts
09-Oct-18 19:27 39.474527 -111.569857 79 38840ft 477kts
09-Oct-18 19:28 39.504568 -111.402090 79 38836ft 478kts
09-Oct-18 19:29 39.534324 -111.234372 79 38831ft 479kts
09-Oct-18 19:30 39.563950 -111.065842 80 38825ft 479kts
09-Oct-18 19:31 39.593295 -110.897400 80 38821ft 480kts
09-Oct-18 19:32 39.617691 -110.756158 81 38820ft 481kts
09-Oct-18 19:33 39.651416 -110.559103 81 38820ft 480kts
09-Oct-18 19:34 39.680190 -110.389251 81 38821ft 481kts
09-Oct-18 19:35 39.708664 -110.219570 82 38823ft 481kts
09-Oct-18 19:36 39.736843 -110.050055 82 38829ft 480kts
09-Oct-18 19:37 39.760140 -109.908661 82 38834ft 481kts
09-Oct-18 19:38 39.792554 -109.710012 82 38842ft 481kts
09-Oct-18 19:39 39.815557 -109.567658 82 38848ft 482kts
09-Oct-18 19:40 39.842922 -109.396762 83 38848ft 483kts
09-Oct-18 19:41 39.870173 -109.224851 83 38851ft 485kts
09-Oct-18 19:42 39.897258 -109.052270 83 38854ft 487kts
09-Oct-18 19:43 39.924165 -108.879022 83 38857ft 489kts
09-Oct-18 19:44 39.950971 -108.704627 84 38861ft 491kts
09-Oct-18 19:45 39.977551 -108.529867 84 38866ft 491kts
09-Oct-18 19:46 40.003886 -108.354844 84 38882ft 491kts
09-Oct-18 19:47 40.030191 -108.180036 84 38902ft 491kts
09-Oct-18 19:48 40.055783 -108.004848 85 38922ft 491kts
09-Oct-18 19:49 40.085547 -107.830085 79 38929ft 495kts
09-Oct-18 19:50 40.121391 -107.656424 80 38931ft 495kts
09-Oct-18 19:51 40.156231 -107.482944 80 38931ft 495kts
09-Oct-18 19:52 40.191045 -107.311020 81 38924ft 494kts
09-Oct-18 19:53 40.226048 -107.134732 81 38460ft 493kts
09-Oct-18 19:54 40.260233 -106.960610 82 35885ft 494kts
09-Oct-18 19:55 40.294318 -106.785286 83 33067ft 499kts
09-Oct-18 19:56 40.333940 -106.581016 82 30289ft 488kts
09-Oct-18 19:57 40.361010 -106.438382 82 28582ft 477kts
09-Oct-18 19:58 40.392598 -106.271643 82 26585ft 465kts
09-Oct-18 19:59 40.422981 -106.109644 81 24614ft 451kts
09-Oct-18 20:00 40.435530 -105.926328 107 22313ft 417kts
09-Oct-18 20:01 40.415581 -105.804621 109 20725ft 405kts
09-Oct-18 20:02 40.392701 -105.661432 108 18820ft 395kts
09-Oct-18 20:03 40.370767 -105.524003 108 17541ft 370kts
09-Oct-18 20:04 40.337324 -105.406501 133 16995ft 317kts
09-Oct-18 20:05 40.282955 -105.320770 136 16065ft 306kts
09-Oct-18 20:06 40.227775 -105.234414 136 15455ft 311kts
09-Oct-18 20:07 40.172605 -105.148013 135 14811ft 307kts
09-Oct-18 20:08 40.117975 -105.062634 135 14208ft 304kts
09-Oct-18 20:09 40.063742 -104.978364 135 13620ft 301kts
09-Oct-18 20:10 40.011620 -104.897557 135 13037ft 298kts
09-Oct-18 20:11 39.956241 -104.818481 156 12092ft 289kts
09-Oct-18 20:12 39.885690 -104.806861 181 11565ft 270kts
09-Oct-18 20:13 39.814621 -104.808293 182 11113ft 240kts
09-Oct-18 20:14 39.750447 -104.809946 182 10811ft 225kts
09-Oct-18 20:15 39.687039 -104.811612 181 10583ft 229kts
09-Oct-18 20:16 39.625624 -104.813241 181 10358ft 206kts
09-Oct-18 20:17 39.571560 -104.814670 181 10157ft 180kts
09-Oct-18 20:18 39.521835 -104.815981 181 9987ft 181kts
09-Oct-18 20:19 39.518594 -104.768941 33 9306ft 212kts
09-Oct-18 20:20 39.570433 -104.736554 28 8364ft 200kts
09-Oct-18 20:21 39.619021 -104.705659 28 7938ft 191kts
09-Oct-18 20:22 39.667381 -104.674374 28 7950ft 194kts
09-Oct-18 20:23 39.717415 -104.661491 1 7586ft 185kts
09-Oct-18 20:24 39.767851 -104.661232 1 6643ft 175kts
09-Oct-18 20:25 39.815251 -104.660730 2 5727ft 167kts
09-Oct-18 20:26 39.849651 -104.660252 4 5439ft 26kts
09-Oct-18 20:27 39.853069 -104.661632 332 5439ft 0kts
09-Oct-18 20:28 39.853482 -104.661924 330 5439ft 12kts
09-Oct-18 20:29 39.859523 -104.662321 359 5439ft 22kts
09-Oct-18 20:30 39.861327 -104.666845 273 5439ft 19kts
09-Oct-18 20:31 39.861372 -104.674128 274 5439ft 12kts
09-Oct-18 20:32 39.862594 -104.675306 0 5439ft 0kts
09-Oct-18 20:33 39.862595 -104.675306 0 5439ft 0kts
09-Oct-18 20:34 39.862595 -104.675306 0 5439ft 0kts
09-Oct-18 20:35 39.862595 -104.675306 0 5439ft 0kts

Navigation Log

Ident Type
Flight plan parsing failed, navigation log unavailable